Time;durP1;ratioP1;P1;durP2;ratioP2;P2;SDS_P1;SDS_P2;PMS_P1;PMS_P2;Temp;Humidity;BMP_temperature;BMP_pressure;BME280_temperature;BME280_humidity;BME280_pressure;Samples;Min_cycle;Max_cycle;Signal;HPM_P1;HPM_P2
2022/02/09 00:02:34;;;;;;;33.28;16.73;;;;;;;0.47;72.12;98322.51;1708180;84;22181;-83
2022/02/09 00:05:21;;;;;;;34.73;16.85;;;;;;;0.46;72.30;98316.85;1705685;84;21422;-83
2022/02/09 00:10:05;;;;;;;30.65;14.07;;;;;;;0.43;71.86;98316.78;1708232;84;21462;-82
2022/02/09 00:12:39;;;;;;;26.95;14.85;;;;;;;0.45;71.85;98316.41;1708063;84;21420;-83
2022/02/09 00:15:19;;;;;;;28.25;14.53;;;;;;;0.46;71.96;98310.33;1707441;84;21037;-82
2022/02/09 00:33:15;;;;;;;28.05;14.90;;;;;;;0.35;70.93;98324.07;1708516;84;21096;-82
2022/02/09 00:36:26;;;;;;;33.38;15.53;;;;;;;0.36;70.87;98322.32;1704669;84;21056;-82
2022/02/09 00:41:48;;;;;;;32.80;15.35;;;;;;;0.34;71.14;98319.69;1708109;84;21025;-83
2022/02/09 00:43:41;;;;;;;26.68;14.23;;;;;;;0.28;70.40;98327.41;1686927;84;21146;-83
2022/02/09 01:56:54;;;;;;;50.38;22.67;;;;;;;-0.01;74.59;98289.98;1723734;83;21020;-82
2022/02/09 01:59:22;;;;;;;52.33;22.80;;;;;;;-0.04;74.15;98271.27;1723634;83;21019;-82
2022/02/09 02:01:48;;;;;;;51.40;22.25;;;;;;;-0.01;73.90;98284.36;1723702;83;21430;-82
2022/02/09 02:04:15;;;;;;;48.60;22.20;;;;;;;0.01;74.39;98276.99;1723737;83;21012;-82
2022/02/09 02:06:48;;;;;;;41.35;20.12;;;;;;;0.03;74.13;98271.40;1723814;83;21540;-82
2022/02/09 02:09:14;;;;;;;39.67;19.55;;;;;;;0.05;74.21;98259.26;1723490;83;21019;-83
2022/02/09 02:11:48;;;;;;;43.52;19.80;;;;;;;0.03;74.80;98263.14;1723545;83;21060;-83
2022/02/09 02:14:26;;;;;;;42.73;20.12;;;;;;;0.02;74.22;98260.50;1722966;83;20985;-82
2022/02/09 02:16:59;;;;;;;45.40;20.35;;;;;;;0.01;74.15;98275.28;1695101;84;21450;-83
2022/02/09 02:35:54;;;;;;;36.33;18.40;;;;;;;0.05;74.58;98293.14;1694926;84;21046;-81
2022/02/09 02:44:11;;;;;;;37.15;18.62;;;;;;;0.14;75.04;98286.78;1694875;85;21053;-82
2022/02/09 02:46:16;;;;;;;35.65;16.85;;;;;;;0.18;74.72;98289.01;1679649;85;21050;-82
2022/02/09 02:59:16;;;;;;;31.37;15.72;;;;;;;0.36;74.68;98318.41;1694739;85;21021;-83
2022/02/09 03:09:51;;;;;;;27.93;12.95;;;;;;;0.36;74.47;98325.82;1694598;85;21116;-82
2022/02/09 03:14:53;;;;;;;29.87;15.53;;;;;;;0.39;74.22;98307.63;1696421;83;21034;-82
2022/02/09 03:17:18;;;;;;;33.80;15.65;;;;;;;0.35;74.12;98310.14;1705928;84;21070;-82
2022/02/09 03:20:01;;;;;;;30.27;14.35;;;;;;;0.37;74.10;98303.21;1706611;84;21022;-82
2022/02/09 03:22:26;;;;;;;27.60;12.90;;;;;;;0.34;74.33;98313.16;1705183;84;21046;-82
2022/02/09 03:27:42;;;;;;;26.50;11.63;;;;;;;0.34;74.01;98323.59;1707040;84;21510;-83
2022/02/09 03:46:45;;;;;;;25.72;13.32;;;;;;;0.33;74.68;98347.92;1705715;84;20994;-84
2022/02/09 03:54:21;;;;;;;;;;;;;;;0.33;74.58;98341.84;1709434;84;20979;-84
2022/02/09 03:59:28;;;;;;;26.07;13.00;;;;;;;0.36;75.08;98349.29;1707145;84;21066;-82
2022/02/09 04:01:54;;;;;;;22.30;12.55;;;;;;;0.39;74.80;98348.05;1707157;84;21023;-83
2022/02/09 04:04:20;;;;;;;27.82;14.25;;;;;;;0.41;74.79;98348.50;1706942;84;21022;-83
2022/02/09 04:06:50;;;;;;;24.15;12.53;;;;;;;0.42;74.95;98355.05;1707173;84;20991;-83
2022/02/09 04:09:18;;;;;;;25.40;12.93;;;;;;;0.45;74.87;98357.69;1706448;84;21050;-84
2022/02/09 04:11:51;;;;;;;29.42;13.72;;;;;;;0.47;75.13;98348.17;1706675;84;21058;-84
2022/02/09 04:36:13;;;;;;;27.75;14.45;;;;;;;0.41;75.04;98340.23;1707104;84;21037;-82
2022/02/09 04:41:43;;;;;;;28.02;14.93;;;;;;;0.43;75.26;98337.65;1707133;84;21026;-82
2022/02/09 04:59:17;;;;;;;34.67;14.05;;;;;;;0.59;75.04;98371.39;1707067;84;21022;-82
2022/02/09 05:17:57;;;;;;;32.83;16.42;;;;;;;0.56;75.30;98399.61;1723925;83;21004;-82
2022/02/09 05:22:46;;;;;;;27.90;14.90;;;;;;;0.53;75.77;98398.23;1723406;83;21079;-82
2022/02/09 05:25:39;;;;;;;36.33;15.15;;;;;;;0.52;75.84;98392.58;1722083;83;20984;-81
2022/02/09 05:27:59;;;;;;;31.07;13.88;;;;;;;0.54;75.77;98400.43;1720464;83;21021;-82
2022/02/09 05:30:21;;;;;;;26.02;13.08;;;;;;;0.53;75.99;98400.84;1722242;83;21074;-82
2022/02/09 05:32:48;;;;;;;24.90;13.75;;;;;;;0.54;75.91;98405.20;1723023;83;21525;-82
2022/02/09 05:35:18;;;;;;;21.37;11.65;;;;;;;0.56;76.19;98402.63;1723158;83;21024;-82
2022/02/09 05:37:44;;;;;;;26.68;13.18;;;;;;;0.57;76.27;98420.02;1723636;81;21052;-82
2022/02/09 05:40:11;;;;;;;25.17;12.93;;;;;;;0.59;76.30;98417.03;1723757;83;21740;-82
2022/02/09 05:42:38;;;;;;;23.47;11.85;;;;;;;0.61;76.36;98420.53;1726426;82;21062;-82
2022/02/09 05:45:13;;;;;;;19.48;10.70;;;;;;;0.62;76.22;98423.17;1739369;82;21006;-82
2022/02/09 05:53:21;;;;;;;27.20;12.90;;;;;;;0.63;76.16;98445.80;1727950;82;21397;-83
2022/02/09 05:55:51;;;;;;;29.45;14.85;;;;;;;0.67;76.19;98451.97;1738921;82;20979;-82
2022/02/09 05:58:34;;;;;;;30.52;14.85;;;;;;;0.70;76.33;98447.23;1739145;82;21007;-82
2022/02/09 06:00:49;;;;;;;29.05;14.40;;;;;;;0.71;76.46;98450.28;1733600;82;20992;-83
2022/02/09 06:03:16;;;;;;;30.15;14.95;;;;;;;0.71;76.55;98464.63;1720121;83;21017;-83
2022/02/09 06:05:44;;;;;;;28.65;13.40;;;;;;;0.70;76.51;98469.41;1709241;83;20992;-83
2022/02/09 06:08:10;;;;;;;32.88;13.98;;;;;;;0.69;76.58;98471.13;1723796;83;20953;-83
2022/02/09 06:10:39;;;;;;;26.00;13.20;;;;;;;0.70;76.58;98481.14;1723534;83;21016;-83
2022/02/09 06:13:24;;;;;;;24.75;13.65;;;;;;;0.72;76.98;98475.10;1723678;83;21480;-83
2022/02/09 06:16:04;;;;;;;26.05;13.43;;;;;;;0.72;77.04;98479.43;1722906;83;21407;-82
2022/02/09 06:21:02;;;;;;;27.30;14.35;;;;;;;0.75;77.81;98487.33;1723768;83;21012;-82
2022/02/09 06:23:34;;;;;;;26.73;14.78;;;;;;;0.77;77.90;98483.00;1723537;83;21004;-82
2022/02/09 06:25:57;;;;;;;33.18;16.17;;;;;;;0.78;77.65;98479.11;1721080;83;21040;-82
2022/02/09 06:28:24;;;;;;;31.95;18.65;;;;;;;0.81;77.63;98486.12;1723689;83;21016;-82
2022/02/09 06:30:50;;;;;;;34.15;18.07;;;;;;;0.82;78.12;98481.79;1719141;83;20965;-82
2022/02/09 06:33:17;;;;;;;33.40;17.17;;;;;;;0.84;78.29;98485.30;1723705;83;20984;-82
2022/02/09 06:35:44;;;;;;;35.78;17.92;;;;;;;0.86;78.18;98496.62;1723772;83;20991;-82
2022/02/09 06:38:10;;;;;;;31.70;16.82;;;;;;;0.84;78.02;98494.02;1723614;83;21449;-82
2022/02/09 06:40:42;;;;;;;34.38;18.75;;;;;;;0.88;78.34;98493.19;1720754;83;21016;-82
2022/02/09 06:43:05;;;;;;;30.80;15.48;;;;;;;0.90;78.25;98503.24;1694153;84;21448;-82
2022/02/09 06:45:36;;;;;;;33.70;16.45;;;;;;;0.91;78.93;98504.10;1694503;85;21045;-82
2022/02/09 06:48:00;;;;;;;30.68;16.35;;;;;;;0.92;78.25;98510.66;1694105;84;21420;-82
2022/02/09 06:50:36;;;;;;;29.98;16.32;;;;;;;0.98;78.04;98501.17;1698880;83;21012;-83
2022/02/09 06:53:12;;;;;;;30.20;16.55;;;;;;;0.97;80.20;98502.03;1722869;83;21458;-83
2022/02/09 06:55:28;;;;;;;49.55;24.80;;;;;;;0.96;79.83;98518.55;1722067;83;21485;-83
2022/02/09 06:58:01;;;;;;;44.80;24.43;;;;;;;0.95;78.94;98499.39;1723750;83;21059;-82
2022/02/09 07:00:29;;;;;;;31.65;18.82;;;;;;;0.97;79.32;98508.14;1722870;83;21457;-83
2022/02/09 07:02:57;;;;;;;58.10;29.00;;;;;;;1.01;79.62;98505.16;1723717;83;21059;-83
2022/02/09 07:05:24;;;;;;;35.63;18.65;;;;;;;1.08;79.12;98507.00;1723624;83;21020;-83
2022/02/09 07:07:50;;;;;;;33.13;17.73;;;;;;;1.14;79.16;98508.84;1723473;83;20999;-82
2022/02/09 07:10:17;;;;;;;26.50;16.15;;;;;;;1.18;79.33;98506.33;1720830;83;21497;-82
2022/02/09 07:12:44;;;;;;;31.87;17.07;;;;;;;1.24;80.55;98503.36;1694422;85;21439;-83
2022/02/09 07:15:15;;;;;;;37.95;18.40;;;;;;;1.29;80.28;98509.54;1694126;85;21026;-83
2022/02/09 07:17:41;;;;;;;35.28;18.32;;;;;;;1.33;81.64;98511.35;1694338;83;21399;-83
2022/02/09 07:20:16;;;;;;;31.87;17.10;;;;;;;1.41;81.66;98512.33;1694579;83;21411;-82
2022/02/09 07:22:38;;;;;;;33.23;17.60;;;;;;;1.50;81.53;98517.25;1720726;83;20965;-83
2022/02/09 07:25:11;;;;;;;30.80;16.40;;;;;;;1.56;83.01;98509.50;1723646;83;21040;-83
2022/02/09 07:28:08;;;;;;;29.60;16.30;;;;;;;1.67;81.22;98517.06;1723160;83;21036;-83
2022/02/09 07:30:10;;;;;;;32.05;16.67;;;;;;;1.76;83.29;98514.14;1718340;83;21063;-82
2022/02/09 07:32:36;;;;;;;26.48;14.47;;;;;;;1.83;84.17;98509.47;1723650;83;21429;-82
2022/02/09 07:35:03;;;;;;;28.00;15.95;;;;;;;1.95;82.80;98516.60;1723522;83;21012;-81
2022/02/09 07:37:30;;;;;;;29.50;16.00;;;;;;;2.07;82.35;98522.39;1723773;83;21453;-82
2022/02/09 07:39:58;;;;;;;23.10;14.18;;;;;;;2.18;82.27;98523.43;1723644;83;21067;-82
2022/02/09 07:42:29;;;;;;;21.27;12.20;;;;;;;2.31;82.33;98518.34;1695148;83;20972;-82
2022/02/09 07:46:15;;;;;;;26.35;13.50;;;;;;;2.42;83.32;98521.09;1677262;85;21461;-82
2022/02/09 07:47:59;;;;;;;20.25;12.03;;;;;;;2.55;81.95;98526.92;1677990;85;21137;-82
2022/02/09 07:52:51;;;;;;;15.93;9.78;;;;;;;2.78;81.61;98538.05;1695418;83;21038;-81
2022/02/09 07:55:08;;;;;;;17.57;10.48;;;;;;;2.90;81.59;98529.45;1696358;84;21470;-81
2022/02/09 07:57:34;;;;;;;13.85;8.33;;;;;;;3.01;81.42;98533.07;1662139;86;21048;-82
2022/02/09 08:00:00;;;;;;;15.08;8.93;;;;;;;3.10;81.90;98521.80;1674127;84;21007;-82
2022/02/09 08:02:28;;;;;;;16.45;8.45;;;;;;;3.23;81.36;98531.05;1662026;86;21374;-82
2022/02/09 08:04:55;;;;;;;14.28;8.58;;;;;;;3.35;81.34;98531.17;1689775;85;21287;-81
2022/02/09 08:07:21;;;;;;;11.97;6.90;;;;;;;3.47;81.11;98532.13;1689968;84;21061;-81
2022/02/09 08:09:48;;;;;;;13.53;6.75;;;;;;;3.57;81.81;98535.25;1687854;85;21430;-81
2022/02/09 08:12:33;;;;;;;10.68;6.30;;;;;;;3.68;81.06;98534.92;1689107;84;21032;-81
2022/02/09 08:33:18;;;;;;;12.07;7.58;;;;;;;4.47;79.70;98520.02;1703232;84;21092;-82
2022/02/09 08:35:48;;;;;;;11.53;6.92;;;;;;;4.58;79.51;98528.36;1698617;84;20982;-83
2022/02/09 08:38:16;;;;;;;9.70;6.50;;;;;;;4.68;79.35;98528.83;1683527;85;20975;-82
2022/02/09 08:40:46;;;;;;;10.72;6.97;;;;;;;4.79;79.23;98529.30;1698609;84;21012;-83
2022/02/09 08:43:14;;;;;;;10.93;6.20;;;;;;;4.89;78.98;98529.75;1687812;84;21017;-82
2022/02/09 08:45:43;;;;;;;8.40;5.55;;;;;;;4.96;78.83;98524.97;1683698;85;21115;-82
2022/02/09 08:48:11;;;;;;;11.45;5.50;;;;;;;5.06;78.61;98535.03;1662076;86;21050;-82
2022/02/09 08:50:37;;;;;;;9.78;6.10;;;;;;;5.14;78.51;98538.56;1681664;84;21470;-83
2022/02/09 08:53:05;;;;;;;13.40;6.80;;;;;;;5.23;78.38;98545.56;1677646;84;21040;-82
2022/02/09 08:55:34;;;;;;;11.75;5.85;;;;;;;5.33;77.88;98553.45;1675672;85;21032;-81
2022/02/09 08:58:03;;;;;;;10.05;5.40;;;;;;;5.37;76.24;98547.33;1675611;86;21004;-82
2022/02/09 09:00:35;;;;;;;8.28;5.15;;;;;;;5.44;76.81;98530.67;1676000;86;21486;-83
2022/02/09 09:25:02;;;;;;;4.42;2.70;;;;;;;6.13;73.15;98556.48;1709868;82;21081;-79
2022/02/09 10:02:52;;;;;;;3.35;1.77;;;;;;;7.43;65.67;98572.52;1700054;83;21043;-83
2022/02/09 10:05:46;;;;;;;3.83;1.70;;;;;;;7.51;65.42;98572.46;1710469;82;21019;-81
2022/02/09 10:34:11;;;;;;;3.55;1.77;;;;;;;8.21;59.79;98577.58;1713608;83;21402;-82
2022/02/09 10:37:06;;;;;;;3.67;1.57;;;;;;;8.27;60.33;98582.32;1713524;82;21053;-81
2022/02/09 10:39:45;;;;;;;3.80;1.80;;;;;;;8.42;60.79;98576.44;1714894;82;21040;-81
2022/02/09 10:44:52;;;;;;;2.98;1.40;;;;;;;8.74;59.42;98579.19;1710962;83;21522;-81
2022/02/09 10:47:27;;;;;;;3.80;1.32;;;;;;;8.91;60.97;98580.72;1714734;83;20980;-81
2022/02/09 10:50:14;;;;;;;2.35;1.05;;;;;;;9.03;58.12;98579.69;1713500;83;20978;-82
2022/02/09 10:52:49;;;;;;;3.08;1.80;;;;;;;9.13;58.59;98569.88;1709832;83;21465;-82
2022/02/09 10:55:39;;;;;;;4.25;1.62;;;;;;;8.97;55.47;98559.05;1689969;84;21553;-81
2022/02/09 10:58:11;;;;;;;3.92;1.40;;;;;;;9.00;57.49;98555.95;1666506;84;20938;-82
2022/02/09 11:00:43;;;;;;;3.37;1.17;;;;;;;8.91;56.99;98564.86;1694414;83;21107;-81
2022/02/09 11:03:09;;;;;;;3.20;1.35;;;;;;;8.77;56.16;98569.91;1692070;84;20984;-81
2022/02/09 11:05:36;;;;;;;2.55;1.20;;;;;;;8.79;56.68;98581.76;1693087;84;21013;-81
2022/02/09 11:08:05;;;;;;;2.40;1.17;;;;;;;8.90;56.83;98571.05;1698169;83;21008;-82
2022/02/09 11:10:32;;;;;;;3.20;1.37;;;;;;;8.76;55.52;98567.28;1692311;84;20977;-82
2022/02/09 11:12:58;;;;;;;2.70;1.30;;;;;;;8.77;56.23;98569.91;1696059;83;20954;-83
2022/02/09 11:15:26;;;;;;;4.90;2.08;;;;;;;8.57;55.57;98571.47;1695290;83;21447;-83
2022/02/09 11:17:53;;;;;;;2.98;1.10;;;;;;;8.55;56.71;98563.98;1693934;83;20962;-83
2022/02/09 11:20:28;;;;;;;2.47;1.47;;;;;;;8.40;55.99;98563.71;1693101;84;21031;-82
2022/02/09 11:22:50;;;;;;;2.98;1.45;;;;;;;8.31;56.37;98548.39;1649302;85;21000;-82
2022/02/09 11:25:42;;;;;;;3.92;1.70;;;;;;;8.27;56.46;98555.91;1696874;84;21506;-82
2022/02/09 11:28:36;;;;;;;3.25;1.40;;;;;;;8.26;56.29;98560.77;1694096;83;21013;-83
2022/02/09 11:31:18;;;;;;;1.82;1.10;;;;;;;8.22;56.21;98560.37;1693419;83;21063;-82
2022/02/09 11:34:02;;;;;;;3.52;1.30;;;;;;;8.25;56.34;98548.90;1695995;84;21558;-82
2022/02/09 11:36:40;;;;;;;2.80;1.40;;;;;;;8.39;56.70;98558.86;1696808;84;21427;-81
2022/02/09 11:39:20;;;;;;;2.65;1.12;;;;;;;8.46;55.89;98549.10;1658354;86;21023;-81
2022/02/09 11:42:08;;;;;;;3.27;1.20;;;;;;;8.57;54.39;98554.30;1675374;84;21025;-81
2022/02/09 11:44:52;;;;;;;2.83;1.45;;;;;;;9.11;55.53;98546.94;1678513;83;21068;-80
2022/02/09 11:48:36;;;;;;;2.90;1.47;;;;;;;9.47;53.06;98543.76;1689268;83;21038;-81
2022/02/09 11:56:19;;;;;;;3.52;1.40;;;;;;;9.46;52.60;98543.78;1712663;82;21003;-81
2022/02/09 12:09:50;;;;;;;10.72;6.17;;;;;;;8.82;55.10;98536.36;1744045;82;21414;-80
2022/02/09 12:12:21;;;;;;;2.67;1.00;;;;;;;8.91;55.32;98532.70;1705008;82;21092;-80
2022/02/09 12:25:49;;;;;;;2.33;1.22;;;;;;;8.82;54.96;98553.55;1707603;83;20930;-81
2022/02/09 12:28:24;;;;;;;2.30;1.20;;;;;;;8.67;55.28;98556.36;1710462;82;21371;-81
2022/02/09 12:31:04;;;;;;;1.75;1.20;;;;;;;8.45;55.82;98573.78;1714370;83;21011;-80
2022/02/09 12:33:34;;;;;;;2.25;1.00;;;;;;;8.22;56.54;98565.66;1709156;83;21060;-80
2022/02/09 12:36:13;;;;;;;2.37;1.15;;;;;;;8.06;57.33;98573.73;1714086;82;20994;-80
2022/02/09 12:38:42;;;;;;;2.85;1.10;;;;;;;8.05;57.63;98564.51;1710713;83;21438;-80
2022/02/09 12:41:19;;;;;;;2.67;1.30;;;;;;;8.01;57.94;98564.99;1717009;83;21500;-80
2022/02/09 12:43:59;;;;;;;2.65;1.00;;;;;;;7.94;58.46;98555.41;1717243;83;21011;-81
2022/02/09 12:46:35;;;;;;;28.15;14.80;;;;;;;7.95;58.61;98557.14;1738934;82;21000;-82
2022/02/09 12:49:12;;;;;;;1.95;1.50;;;;;;;7.86;58.81;98564.72;1708928;82;21091;-82
2022/02/09 12:51:42;;;;;;;3.58;1.22;;;;;;;7.86;58.83;98560.75;1707956;83;20950;-81
2022/02/09 12:54:11;;;;;;;1.52;1.00;;;;;;;7.75;59.02;98555.57;1711143;83;21059;-82
2022/02/09 12:56:43;;;;;;;2.45;1.00;;;;;;;7.79;59.14;98552.45;1712169;83;21010;-82
2022/02/09 12:59:13;;;;;;;3.70;1.60;;;;;;;7.79;59.20;98563.00;1717036;83;21004;-81
2022/02/09 13:01:53;;;;;;;2.77;1.25;;;;;;;7.72;59.32;98556.91;1718769;83;21449;-81
2022/02/09 13:04:35;;;;;;;2.45;1.40;;;;;;;7.71;59.35;98562.19;1724030;83;21030;-80
2022/02/09 13:07:15;;;;;;;2.40;1.40;;;;;;;7.64;59.63;98573.27;1714031;83;21068;-81
2022/02/09 13:09:51;;;;;;;4.00;1.50;;;;;;;7.66;59.79;98568.84;1721495;83;21041;-79
2022/02/09 13:12:30;;;;;;;4.10;1.60;;;;;;;7.62;59.68;98558.77;1711839;83;21406;-81
2022/02/09 13:15:13;;;;;;;4.15;1.62;;;;;;;7.61;59.96;98564.05;1717932;83;21017;-80
2022/02/09 13:21:05;;;;;;;4.95;1.92;;;;;;;7.65;60.09;98566.63;1702990;83;21568;-81
2022/02/09 13:26:18;;;;;;;5.78;2.22;;;;;;;7.96;59.42;98550.97;1715093;83;20990;-81
2022/02/09 13:52:56;;;;;;;3.70;1.60;;;;;;;7.79;59.52;98545.42;1690878;84;20993;-81
2022/02/09 14:06:51;;;;;;;3.02;1.62;;;;;;;7.77;59.80;98559.52;1642583;86;21099;-81
2022/02/09 14:54:51;;;;;;;4.33;2.92;;;;;;;7.42;61.32;98590.55;1715470;82;21400;-79
2022/02/09 14:57:19;;;;;;;3.95;2.00;;;;;;;7.40;61.53;98590.56;1686107;84;21443;-80
2022/02/09 15:02:17;;;;;;;4.55;2.75;;;;;;;7.36;61.70;98590.61;1663930;86;21001;-79
2022/02/09 15:10:16;;;;;;;5.58;2.75;;;;;;;7.23;62.64;98586.72;1643388;86;21573;-80
2022/02/09 15:12:51;;;;;;;4.67;2.42;;;;;;;7.18;62.49;98585.88;1671176;85;21061;-79
2022/02/09 15:15:22;;;;;;;4.92;2.62;;;;;;;7.11;62.65;98591.63;1670296;86;21045;-79
2022/02/09 15:18:13;;;;;;;3.70;2.22;;;;;;;7.07;62.74;98596.51;1671600;86;21045;-79
2022/02/09 15:22:55;;;;;;;5.60;2.55;;;;;;;6.92;63.25;98593.50;1640689;84;21060;-79
2022/02/09 15:25:23;;;;;;;4.50;2.47;;;;;;;6.88;63.30;98590.91;1702120;84;21045;-79
2022/02/09 15:27:58;;;;;;;6.53;2.87;;;;;;;6.85;63.23;98595.28;1685245;84;21511;-79
2022/02/09 15:30:18;;;;;;;5.62;2.80;;;;;;;6.83;63.35;98598.81;1640147;86;21057;-79
2022/02/09 15:32:51;;;;;;;6.08;2.85;;;;;;;6.79;63.70;98595.32;1654361;86;21451;-79
2022/02/09 15:35:20;;;;;;;5.00;2.65;;;;;;;6.74;63.92;98595.33;1654239;86;20974;-79
2022/02/09 15:40:24;;;;;;;4.53;2.52;;;;;;;6.68;63.87;98586.14;1702027;84;21048;-79
2022/02/09 15:56:31;;;;;;;19.87;10.28;;;;;;;6.46;64.58;98587.98;1672303;85;21037;-78
2022/02/09 15:59:16;;;;;;;3.70;2.52;;;;;;;6.43;64.53;98594.56;1653084;87;21049;-79
2022/02/09 16:09:35;;;;;;;9.23;4.58;;;;;;;6.36;64.90;98599.42;1671953;85;21049;-79
2022/02/09 16:22:31;;;;;;;5.83;3.58;;;;;;;6.06;65.57;98617.89;1689771;84;21056;-80
2022/02/09 16:33:14;;;;;;;6.20;4.47;;;;;;;5.90;65.82;98628.86;1672004;85;20998;-80
2022/02/09 16:46:25;;;;;;;14.15;9.43;;;;;;;5.51;66.65;98643.28;1682154;84;21026;-81
2022/02/09 16:49:01;;;;;;;13.68;8.35;;;;;;;5.39;67.80;98638.46;1671866;85;21681;-81
2022/02/09 16:51:23;;;;;;;15.40;7.90;;;;;;;5.34;67.18;98641.52;1670864;86;20998;-81
2022/02/09 16:54:25;;;;;;;16.65;7.25;;;;;;;5.25;67.19;98644.13;1672840;84;21081;-81
2022/02/09 17:18:57;;;;;;;23.40;13.25;;;;;;;4.66;69.38;98658.35;1723655;83;20989;-79
2022/02/09 17:21:22;;;;;;;17.82;10.08;;;;;;;4.62;69.69;98665.34;1722855;83;21032;-78
2022/02/09 17:23:51;;;;;;;24.00;11.33;;;;;;;4.59;69.75;98660.95;1723565;83;21055;-79
2022/02/09 17:26:19;;;;;;;16.20;9.75;;;;;;;4.58;70.44;98664.45;1723586;83;21028;-81
2022/02/09 17:28:57;;;;;;;16.80;10.60;;;;;;;4.60;70.65;98668.38;1723675;83;21005;-81
2022/02/09 17:31:28;;;;;;;18.07;10.32;;;;;;;4.59;70.98;98667.52;1722714;82;21053;-79
2022/02/09 17:57:48;;;;;;;30.37;16.35;;;;;;;4.41;71.49;98693.23;1678931;85;21045;-79
2022/02/09 18:02:43;;;;;;;36.70;17.77;;;;;;;4.29;73.81;98691.81;1678600;85;20993;-80
2022/02/09 18:05:58;;;;;;;31.87;16.50;;;;;;;4.27;72.46;98690.94;1687301;85;21060;-80
2022/02/09 18:07:44;;;;;;;32.53;17.15;;;;;;;4.23;72.81;98686.97;1691946;85;21057;-80
2022/02/09 18:10:22;;;;;;;35.50;17.52;;;;;;;4.21;72.67;98695.28;1696426;83;21526;-80
2022/02/09 18:32:14;;;;;;;;;;;;;;;4.45;73.64;98694.98;1683047;84;21066;-81
2022/02/09 18:40:32;;;;;;;25.68;12.88;;;;;;;4.51;73.54;98709.90;1708444;84;21029;-81
2022/02/09 18:44:36;;;;;;;25.25;12.75;;;;;;;4.56;73.87;98706.87;1680193;85;21029;-81
2022/02/09 18:58:58;;;;;;;19.20;11.60;;;;;;;4.41;74.17;98719.89;1680051;85;21044;-80
2022/02/09 19:06:02;;;;;;;27.10;12.30;;;;;;;4.27;74.44;98727.22;1708545;84;21406;-80
2022/02/09 19:08:49;;;;;;;24.87;12.60;;;;;;;4.19;74.79;98719.30;1700621;83;21510;-80
2022/02/09 19:28:18;;;;;;;34.83;18.80;;;;;;;3.37;73.85;98723.77;1641348;86;20993;-79
2022/02/09 19:32:57;;;;;;;25.70;13.98;;;;;;;3.10;74.03;98725.19;1708273;84;21052;-79
2022/02/09 19:40:42;;;;;;;26.65;16.30;;;;;;;2.71;74.01;98724.70;1707084;83;21009;-79
2022/02/09 19:45:57;;;;;;;28.23;16.62;;;;;;;2.51;74.36;98731.83;1696449;84;21402;-80
2022/02/09 19:48:25;;;;;;;26.55;15.70;;;;;;;2.42;74.94;98734.31;1681304;84;21462;-81
2022/02/09 19:51:09;;;;;;;30.17;14.98;;;;;;;2.33;74.71;98737.67;1678158;85;21483;-82
2022/02/09 19:53:30;;;;;;;29.92;15.78;;;;;;;2.24;74.48;98735.77;1675677;85;21004;-80
2022/02/09 19:56:05;;;;;;;28.27;14.90;;;;;;;2.12;75.15;98735.17;1677909;85;21028;-80
2022/02/09 20:00:57;;;;;;;29.45;15.65;;;;;;;1.94;75.04;98737.02;1646870;85;21017;-81
2022/02/09 20:03:22;;;;;;;28.25;16.10;;;;;;;1.86;74.85;98734.28;1678592;85;21037;-81
2022/02/09 20:05:49;;;;;;;26.50;15.03;;;;;;;1.81;75.19;98738.55;1678543;85;21013;-80
2022/02/09 20:08:15;;;;;;;28.05;15.55;;;;;;;1.77;75.53;98733.70;1701359;84;20985;-81
2022/02/09 20:10:43;;;;;;;27.95;15.68;;;;;;;1.73;75.75;98728.41;1708374;84;21135;-81
2022/02/09 20:13:09;;;;;;;26.07;16.00;;;;;;;1.67;75.90;98726.10;1708162;84;20977;-80
2022/02/09 20:15:36;;;;;;;30.50;16.20;;;;;;;1.64;76.16;98726.48;1708326;83;21406;-80
2022/02/09 20:18:03;;;;;;;33.25;16.67;;;;;;;1.64;76.62;98730.40;1688634;84;21075;-80
2022/02/09 20:20:31;;;;;;;29.98;16.15;;;;;;;1.63;76.80;98732.56;1678459;85;21076;-80
2022/02/09 20:22:59;;;;;;;33.20;16.40;;;;;;;1.64;77.46;98730.40;1678733;85;21065;-80
2022/02/09 20:25:27;;;;;;;28.65;16.62;;;;;;;1.61;77.31;98726.45;1683168;84;21056;-80
2022/02/09 20:27:55;;;;;;;29.57;17.37;;;;;;;1.56;77.62;98722.02;1696372;83;20996;-80
2022/02/09 20:30:27;;;;;;;32.10;17.05;;;;;;;1.51;77.73;98721.46;1696505;83;21040;-80
2022/02/09 20:33:00;;;;;;;29.23;15.72;;;;;;;1.44;77.89;98722.66;1696336;84;21455;-80
2022/02/09 20:35:21;;;;;;;30.80;16.67;;;;;;;1.38;77.90;98718.64;1697267;84;22410;-81
2022/02/09 20:37:51;;;;;;;35.85;17.60;;;;;;;1.33;78.07;98715.05;1708604;84;21059;-80
2022/02/09 20:40:22;;;;;;;34.10;16.67;;;;;;;1.27;77.74;98712.30;1708315;84;21080;-80
2022/02/09 20:42:53;;;;;;;35.83;17.62;;;;;;;1.20;77.74;98722.19;1708095;84;21012;-80
2022/02/09 20:45:22;;;;;;;31.52;17.77;;;;;;;1.10;77.56;98722.00;1705391;84;21427;-80
2022/02/09 20:47:47;;;;;;;31.85;16.50;;;;;;;1.00;77.57;98722.66;1677406;85;21061;-80
2022/02/09 20:50:10;;;;;;;32.95;17.00;;;;;;;0.92;77.49;98720.76;1677772;85;20989;-80
2022/02/09 20:52:37;;;;;;;32.80;16.75;;;;;;;0.83;77.62;98717.95;1678740;85;21013;-81
2022/02/09 20:55:05;;;;;;;33.23;18.42;;;;;;;0.77;77.71;98716.11;1679856;84;21012;-80
2022/02/09 20:57:33;;;;;;;38.23;17.87;;;;;;;0.70;77.61;98719.86;1686645;83;21111;-80
2022/02/09 21:00:09;;;;;;;44.20;23.50;;;;;;;0.63;78.29;98716.23;1708215;83;21454;-80
2022/02/09 21:05:36;;;;;;;48.17;23.30;;;;;;;0.50;79.38;98719.00;1701286;83;21016;-81
2022/02/09 21:08:28;;;;;;;36.08;19.10;;;;;;;0.44;78.92;98717.53;1723706;82;21388;-78
2022/02/09 21:10:59;;;;;;;45.58;23.73;;;;;;;0.41;79.86;98713.13;1724255;82;21123;-78
2022/02/09 21:13:00;;;;;;;41.05;21.80;;;;;;;0.41;80.31;98716.17;1718036;83;21391;-78
2022/02/09 21:15:52;;;;;;;41.83;20.25;;;;;;;0.39;80.62;98714.42;1716923;81;21509;-79
2022/02/09 21:20:57;;;;;;;44.25;23.57;;;;;;;0.41;81.55;98720.09;1652974;83;21450;-77
2022/02/09 21:29:33;;;;;;;41.05;20.77;;;;;;;0.37;81.09;98718.70;1703502;82;21036;-81
2022/02/09 21:31:41;;;;;;;41.98;21.35;;;;;;;0.38;81.15;98719.59;1707874;83;21019;-81
2022/02/09 21:54:52;;;;;;;40.83;21.48;;;;;;;0.45;81.93;98712.36;1713333;83;21039;-81
2022/02/09 22:00:19;;;;;;;37.73;19.82;;;;;;;0.31;81.16;98715.06;1678751;85;21419;-80
2022/02/09 22:16:30;;;;;;;36.20;19.42;;;;;;;-0.04;80.66;98703.83;1670171;84;20996;-80
2022/02/09 22:22:00;;;;;;;35.63;18.50;;;;;;;-0.11;80.92;98709.75;1687998;84;21013;-80
2022/02/09 22:33:11;;;;;;;34.33;19.42;;;;;;;-0.27;81.09;98708.07;1694910;85;21032;-80
2022/02/09 22:55:42;;;;;;;41.77;22.20;;;;;;;-0.34;81.68;98710.48;1707751;84;21005;-81
2022/02/09 22:58:06;;;;;;;39.27;20.90;;;;;;;-0.31;82.04;98715.75;1715857;83;21021;-80
2022/02/09 23:03:28;;;;;;;33.75;18.77;;;;;;;-0.27;82.34;98711.09;1724054;83;21044;-80
2022/02/09 23:06:06;;;;;;;42.08;20.50;;;;;;;-0.23;82.23;98710.33;1723402;83;21064;-80
2022/02/09 23:08:50;;;;;;;37.05;19.82;;;;;;;-0.18;82.12;98715.64;1721142;83;20984;-80
2022/02/09 23:13:45;;;;;;;42.55;20.62;;;;;;;-0.09;82.08;98709.36;1703989;83;21011;-80
2022/02/09 23:19:48;;;;;;;44.13;20.68;;;;;;;0.00;82.35;98704.81;1723804;83;21024;-79
